createdAt,value
2023-02-28T00:01:31.815Z,9.31
2023-02-28T00:03:58.829Z,9.10
2023-02-28T00:06:26.355Z,9.37
2023-02-28T00:08:53.181Z,9.32
2023-02-28T00:11:20.005Z,9.24
2023-02-28T00:13:47.717Z,9.07
2023-02-28T00:16:17.183Z,9.18
2023-02-28T00:18:44.085Z,9.38
2023-02-28T00:21:10.960Z,9.26
2023-02-28T00:23:37.771Z,8.78
2023-02-28T00:26:04.855Z,9.14
2023-02-28T00:28:31.651Z,9.06
2023-02-28T00:30:58.976Z,9.33
2023-02-28T00:33:25.822Z,9.14
2023-02-28T00:35:52.737Z,9.14
2023-02-28T00:38:19.605Z,9.25
2023-02-28T00:40:46.528Z,8.82
2023-02-28T00:43:13.278Z,9.11
2023-02-28T00:45:40.103Z,8.93
2023-02-28T00:48:07.424Z,9.02
2023-02-28T00:50:34.240Z,8.96
2023-02-28T00:53:00.999Z,8.86
2023-02-28T00:55:27.960Z,8.82
2023-02-28T00:57:54.721Z,8.67
2023-02-28T01:00:21.616Z,8.81
2023-02-28T01:02:48.452Z,8.80
2023-02-28T01:05:15.466Z,8.73
2023-02-28T01:07:42.454Z,8.69
2023-02-28T01:10:10.094Z,7.94
2023-02-28T01:12:36.992Z,8.64
2023-02-28T01:15:04.106Z,8.28
2023-02-28T01:17:30.924Z,8.33
2023-02-28T01:19:57.886Z,8.23
2023-02-28T01:22:24.759Z,8.43
2023-02-28T01:24:51.561Z,8.54
2023-02-28T01:27:18.418Z,7.65
2023-02-28T01:29:45.223Z,8.41
2023-02-28T01:32:12.216Z,8.49
2023-02-28T01:34:39.284Z,8.58
2023-02-28T01:37:06.168Z,8.76
2023-02-28T01:39:32.929Z,8.62
2023-02-28T01:41:59.839Z,8.78
2023-02-28T01:45:14.751Z,8.80
2023-02-28T01:47:42.455Z,8.71
2023-02-28T01:50:13.052Z,8.64
2023-02-28T01:52:39.863Z,8.56
2023-02-28T01:55:07.286Z,8.19
2023-02-28T01:57:38.858Z,8.12
2023-02-28T02:00:16.877Z,8.35
2023-02-28T02:02:44.755Z,8.62
2023-02-28T02:05:16.021Z,8.51
2023-02-28T02:07:44.288Z,8.25
2023-02-28T02:10:16.111Z,8.57
2023-02-28T02:13:01.109Z,8.59
2023-02-28T02:15:35.426Z,8.45
2023-02-28T02:18:15.791Z,8.42
2023-02-28T02:21:13.560Z,8.47
2023-02-28T02:24:19.132Z,8.49
2023-02-28T02:27:07.531Z,8.49
2023-02-28T02:29:43.582Z,8.49
2023-02-28T02:32:34.625Z,8.47
2023-02-28T02:35:22.205Z,8.41
2023-02-28T02:38:08.377Z,8.43
2023-02-28T02:40:39.742Z,8.41
2023-02-28T02:43:15.387Z,8.54
2023-02-28T02:46:06.808Z,8.40
2023-02-28T02:48:34.692Z,8.51
2023-02-28T02:51:03.383Z,8.51
2023-02-28T02:53:33.730Z,8.54
2023-02-28T02:56:01.107Z,8.30
2023-02-28T02:58:30.679Z,8.25
2023-02-28T03:01:00.491Z,8.00
2023-02-28T03:03:30.686Z,8.38
2023-02-28T03:06:01.746Z,8.23
2023-02-28T03:08:30.412Z,8.18
2023-02-28T03:11:01.199Z,7.98
2023-02-28T03:13:47.540Z,7.93
2023-02-28T03:16:23.406Z,8.27
2023-02-28T03:19:02.419Z,8.28
2023-02-28T03:21:32.171Z,8.33
2023-02-28T03:24:11.041Z,8.32
2023-02-28T03:26:40.987Z,8.27
2023-02-28T03:29:26.369Z,8.31
2023-02-28T03:32:00.993Z,8.28
2023-02-28T03:34:34.493Z,8.09
2023-02-28T03:37:05.729Z,7.86
2023-02-28T03:39:39.207Z,8.01
2023-02-28T03:42:26.331Z,7.76
2023-02-28T03:45:04.339Z,7.87
2023-02-28T03:47:42.733Z,7.15
2023-02-28T03:50:14.348Z,7.84
2023-02-28T03:52:46.313Z,7.92
2023-02-28T03:55:14.202Z,7.82
2023-02-28T03:58:00.920Z,7.81
2023-02-28T04:01:01.529Z,7.86
2023-02-28T04:03:28.402Z,7.79
2023-02-28T04:05:55.749Z,7.89
2023-02-28T04:08:22.868Z,7.64
2023-02-28T04:10:57.356Z,7.77
2023-02-28T04:13:24.202Z,7.79
2023-02-28T04:15:51.007Z,7.83
2023-02-28T04:18:17.907Z,7.71
2023-02-28T04:20:44.715Z,7.55
2023-02-28T04:23:11.669Z,7.42
2023-02-28T04:25:38.545Z,7.79
2023-02-28T04:28:05.514Z,7.78
2023-02-28T04:30:33.670Z,7.78
2023-02-28T04:33:01.372Z,7.01
2023-02-28T04:35:28.242Z,7.69
2023-02-28T04:37:55.100Z,7.44
2023-02-28T04:40:21.980Z,7.54
2023-02-28T04:42:48.797Z,7.49
2023-02-28T04:45:15.654Z,7.25
2023-02-28T04:47:42.417Z,7.02
2023-02-28T04:50:09.825Z,7.22
2023-02-28T04:52:36.573Z,7.13
2023-02-28T04:55:03.502Z,7.46
2023-02-28T04:57:31.125Z,7.49
2023-02-28T04:59:58.514Z,7.55
2023-02-28T05:02:25.813Z,7.48
2023-02-28T05:04:52.587Z,7.41
2023-02-28T05:07:19.303Z,7.40
2023-02-28T05:09:46.078Z,7.24
2023-02-28T05:12:12.813Z,7.48
2023-02-28T05:14:39.700Z,7.18
2023-02-28T05:17:06.559Z,7.50
2023-02-28T05:19:33.375Z,7.19
2023-02-28T05:22:00.149Z,7.38
2023-02-28T05:24:28.451Z,7.06
2023-02-28T05:26:55.478Z,7.42
2023-02-28T05:29:22.621Z,7.44
2023-02-28T05:31:49.671Z,7.18
2023-02-28T05:34:17.175Z,7.39
2023-02-28T05:36:44.184Z,7.38
2023-02-28T05:39:14.265Z,7.15
2023-02-28T05:41:44.268Z,7.03
2023-02-28T05:44:11.360Z,7.17
2023-02-28T05:46:38.202Z,7.22
2023-02-28T05:49:05.065Z,7.33
2023-02-28T05:51:32.317Z,7.30
2023-02-28T05:54:02.480Z,7.10
2023-02-28T05:56:29.270Z,7.10
2023-02-28T05:58:56.099Z,7.31
2023-02-28T06:01:31.848Z,7.26
2023-02-28T06:04:02.614Z,6.89
2023-02-28T06:06:30.678Z,7.05
2023-02-28T06:08:58.208Z,7.20
2023-02-28T06:11:28.696Z,7.35
2023-02-28T06:13:57.390Z,7.35
2023-02-28T06:16:25.335Z,7.32
2023-02-28T06:18:53.720Z,7.31
2023-02-28T06:21:20.623Z,7.21
2023-02-28T06:23:47.743Z,6.63
2023-02-28T06:26:14.608Z,6.94
2023-02-28T06:28:41.419Z,7.13
2023-02-28T06:31:12.545Z,7.03
2023-02-28T06:33:39.793Z,7.16
2023-02-28T06:36:07.030Z,6.71
2023-02-28T06:38:33.888Z,6.80
2023-02-28T06:41:01.486Z,6.83
2023-02-28T06:43:32.527Z,6.79
2023-02-28T06:46:00.706Z,7.09
2023-02-28T06:48:28.042Z,6.79
2023-02-28T06:51:05.626Z,6.78
2023-02-28T06:53:32.519Z,7.11
2023-02-28T06:55:59.384Z,6.91
2023-02-28T06:58:26.399Z,7.12
2023-02-28T07:00:53.428Z,7.06
2023-02-28T07:03:20.288Z,7.00
2023-02-28T07:05:47.245Z,6.89
2023-02-28T07:08:14.300Z,7.18
2023-02-28T07:10:41.307Z,7.22
2023-02-28T07:13:08.405Z,6.99
2023-02-28T07:15:37.670Z,7.04
2023-02-28T07:18:06.075Z,7.25
2023-02-28T07:20:32.998Z,7.10
2023-02-28T07:22:59.743Z,7.42
2023-02-28T07:25:27.313Z,7.36
2023-02-28T07:27:55.128Z,7.49
2023-02-28T07:30:25.059Z,7.36
2023-02-28T07:32:51.606Z,7.51
2023-02-28T07:35:18.661Z,7.53
2023-02-28T07:37:45.395Z,7.64
2023-02-28T07:40:13.168Z,7.74
2023-02-28T07:42:40.775Z,7.81
2023-02-28T07:45:08.942Z,8.04
2023-02-28T07:47:35.707Z,7.97
2023-02-28T07:50:02.600Z,8.36
2023-02-28T07:52:29.446Z,8.27
2023-02-28T07:54:56.182Z,8.60
2023-02-28T07:57:23.024Z,8.86
2023-02-28T07:59:49.872Z,9.08
2023-02-28T08:02:17.420Z,9.32
2023-02-28T08:04:44.437Z,9.38
2023-02-28T08:07:14.176Z,9.83
2023-02-28T08:09:41.478Z,9.82
2023-02-28T08:12:08.802Z,9.98
2023-02-28T08:14:35.790Z,10.29
2023-02-28T08:17:02.552Z,10.40
2023-02-28T08:19:29.466Z,10.69
2023-02-28T08:21:56.891Z,10.74
2023-02-28T08:24:23.775Z,10.89
2023-02-28T08:26:50.710Z,11.13
2023-02-28T08:29:17.647Z,11.17
2023-02-28T08:31:44.608Z,11.41
2023-02-28T08:34:13.336Z,11.71
2023-02-28T08:36:40.250Z,12.05
2023-02-28T08:39:07.433Z,12.25
2023-02-28T08:41:34.716Z,12.33
2023-02-28T08:44:01.488Z,12.63
2023-02-28T08:46:28.242Z,12.83
2023-02-28T08:48:56.103Z,12.85
2023-02-28T08:51:27.909Z,13.23
2023-02-28T08:53:56.007Z,13.18
2023-02-28T08:56:23.010Z,12.86
2023-02-28T08:58:50.288Z,13.38
2023-02-28T09:01:17.107Z,13.56
2023-02-28T09:03:44.271Z,13.70
2023-02-28T09:06:11.354Z,13.42
2023-02-28T09:08:38.103Z,13.89
2023-02-28T09:11:05.136Z,14.06
2023-02-28T09:13:33.365Z,14.40
2023-02-28T09:16:01.055Z,14.51
2023-02-28T09:18:28.006Z,14.75
2023-02-28T09:20:54.735Z,14.79
2023-02-28T09:23:21.793Z,14.82
2023-02-28T09:25:49.924Z,14.83
2023-02-28T09:28:17.913Z,15.07
2023-02-28T09:30:52.735Z,15.22
2023-02-28T09:33:21.850Z,14.93
2023-02-28T09:35:52.059Z,15.28
2023-02-28T09:38:19.020Z,15.21
2023-02-28T09:40:54.420Z,15.43
2023-02-28T09:43:22.539Z,15.60
2023-02-28T09:45:52.905Z,15.94
2023-02-28T09:48:25.016Z,16.30
2023-02-28T09:51:02.330Z,16.16
2023-02-28T09:53:37.172Z,16.64
2023-02-28T09:56:18.815Z,16.52
2023-02-28T09:58:50.499Z,16.93
2023-02-28T10:01:26.356Z,16.71
2023-02-28T10:04:23.125Z,16.72
2023-02-28T10:06:53.062Z,16.70
2023-02-28T10:09:28.106Z,16.84
2023-02-28T10:11:58.417Z,16.82
2023-02-28T10:14:27.347Z,16.96
2023-02-28T10:17:17.130Z,17.14
2023-02-28T10:19:44.018Z,17.00
2023-02-28T10:22:11.794Z,17.15
2023-02-28T10:24:45.816Z,17.23
2023-02-28T10:27:26.265Z,17.25
2023-02-28T10:29:54.791Z,17.00
2023-02-28T10:32:25.354Z,16.54
2023-02-28T10:35:02.811Z,16.50
2023-02-28T10:37:29.737Z,16.40
2023-02-28T10:39:57.486Z,16.81
2023-02-28T10:42:29.197Z,17.07
2023-02-28T10:45:16.578Z,17.06
2023-02-28T10:47:54.023Z,17.36
2023-02-28T10:50:39.411Z,17.27
2023-02-28T10:53:24.853Z,17.50
2023-02-28T10:56:00.912Z,17.65
2023-02-28T10:58:49.578Z,17.45
2023-02-28T11:01:19.188Z,16.81
2023-02-28T11:03:45.822Z,17.75
2023-02-28T11:06:22.900Z,18.32
2023-02-28T11:08:57.123Z,18.79
2023-02-28T11:11:26.072Z,19.23
2023-02-28T11:13:54.544Z,19.58
2023-02-28T11:16:21.387Z,20.26
2023-02-28T11:18:53.458Z,20.28
2023-02-28T11:21:29.998Z,20.78
2023-02-28T11:24:07.166Z,20.94
2023-02-28T11:26:47.746Z,21.32
2023-02-28T11:29:20.300Z,21.45
2023-02-28T11:32:10.140Z,21.89
2023-02-28T11:34:38.035Z,22.05
2023-02-28T11:37:06.588Z,21.79
2023-02-28T11:39:34.331Z,21.99
2023-02-28T11:42:12.872Z,22.15
2023-02-28T11:45:01.441Z,22.33
2023-02-28T11:47:31.263Z,22.50
2023-02-28T11:50:34.733Z,22.43
2023-02-28T11:53:07.197Z,22.20
2023-02-28T11:55:51.527Z,22.01
2023-02-28T11:58:37.376Z,22.41
2023-02-28T12:01:19.790Z,23.09
2023-02-28T12:04:08.248Z,23.47
2023-02-28T12:06:40.396Z,23.85
2023-02-28T12:09:25.852Z,24.26
2023-02-28T12:11:55.130Z,24.68
2023-02-28T12:14:37.021Z,25.11
2023-02-28T12:17:25.276Z,25.50
2023-02-28T12:20:05.155Z,25.60
2023-02-28T12:22:50.795Z,25.44
2023-02-28T12:25:37.699Z,25.71
2023-02-28T12:28:04.594Z,25.46
2023-02-28T12:30:36.108Z,25.47
2023-02-28T12:33:08.407Z,25.77
2023-02-28T12:35:38.513Z,25.82
2023-02-28T12:38:10.599Z,25.71
2023-02-28T12:41:02.601Z,25.44
2023-02-28T12:43:38.075Z,25.15
2023-02-28T12:46:21.104Z,24.79
2023-02-28T12:48:49.854Z,24.22
2023-02-28T12:51:16.888Z,24.16
2023-02-28T12:53:56.514Z,23.84
2023-02-28T12:56:31.198Z,23.47
2023-02-28T12:59:08.680Z,23.59
2023-02-28T13:01:53.603Z,23.60
2023-02-28T13:04:58.042Z,24.67
2023-02-28T13:07:42.760Z,25.39
2023-02-28T13:10:09.953Z,25.59
2023-02-28T13:12:37.010Z,26.11
2023-02-28T13:15:17.681Z,26.68
2023-02-28T13:17:44.782Z,26.86
2023-02-28T13:20:38.569Z,27.28
2023-02-28T13:23:08.027Z,27.68
2023-02-28T13:25:34.815Z,28.06
2023-02-28T13:28:05.349Z,28.39
2023-02-28T13:30:55.623Z,28.42
2023-02-28T13:33:51.064Z,28.30
2023-02-28T13:36:20.918Z,27.84
2023-02-28T13:38:49.274Z,26.68
2023-02-28T13:41:36.986Z,25.21
2023-02-28T13:44:09.776Z,23.97
2023-02-28T13:46:49.778Z,22.83
2023-02-28T13:49:37.914Z,21.72
2023-02-28T13:52:07.613Z,20.86
2023-02-28T13:54:42.484Z,20.18
2023-02-28T13:57:32.490Z,19.42
2023-02-28T14:00:19.277Z,18.87
2023-02-28T14:03:12.252Z,18.05
2023-02-28T14:05:39.979Z,17.81
2023-02-28T14:08:22.066Z,17.08
2023-02-28T14:10:52.944Z,17.11
2023-02-28T14:13:28.774Z,16.88
2023-02-28T14:16:05.620Z,16.62
2023-02-28T14:18:39.215Z,16.09
2023-02-28T14:21:22.014Z,16.26
2023-02-28T14:24:07.835Z,16.12
2023-02-28T14:26:44.375Z,15.98
2023-02-28T14:29:48.554Z,15.82
2023-02-28T14:32:23.002Z,15.67
2023-02-28T14:35:02.159Z,15.56
2023-02-28T14:37:34.662Z,15.05
2023-02-28T14:40:01.821Z,15.19
2023-02-28T14:42:32.055Z,15.11
2023-02-28T14:44:59.307Z,15.04
2023-02-28T14:47:32.116Z,15.21
2023-02-28T14:50:00.115Z,14.89
2023-02-28T14:52:31.046Z,14.91
2023-02-28T14:55:13.018Z,15.02
2023-02-28T14:57:51.555Z,14.78
2023-02-28T15:00:31.409Z,14.80
2023-02-28T15:02:58.576Z,14.87
2023-02-28T15:05:26.912Z,14.51
2023-02-28T15:08:07.495Z,14.68
2023-02-28T15:10:34.537Z,14.39
2023-02-28T15:13:03.142Z,14.44
2023-02-28T15:16:01.907Z,14.49
2023-02-28T15:18:49.817Z,14.43
2023-02-28T15:21:24.937Z,14.44
2023-02-28T15:23:58.674Z,14.46
2023-02-28T15:26:29.066Z,14.17
2023-02-28T15:29:06.088Z,14.08
2023-02-28T15:31:50.311Z,14.34
2023-02-28T15:34:44.020Z,14.41
2023-02-28T15:37:28.568Z,14.22
2023-02-28T15:39:56.672Z,13.87
2023-02-28T15:42:25.104Z,14.03
2023-02-28T15:44:52.542Z,14.08
2023-02-28T15:47:21.462Z,13.91
2023-02-28T15:49:52.783Z,14.27
2023-02-28T15:52:44.941Z,14.21
2023-02-28T15:55:17.501Z,14.13
2023-02-28T15:57:44.325Z,13.97
2023-02-28T16:00:14.258Z,14.24
2023-02-28T16:02:41.277Z,14.26
2023-02-28T16:05:11.500Z,14.24
2023-02-28T16:07:45.344Z,14.02
2023-02-28T16:10:13.755Z,14.12
2023-02-28T16:12:40.704Z,14.20
2023-02-28T16:15:29.817Z,13.92
2023-02-28T16:17:57.269Z,14.13
2023-02-28T16:20:29.125Z,13.89
2023-02-28T16:22:56.149Z,13.80
2023-02-28T16:25:30.217Z,13.71
2023-02-28T16:27:58.760Z,13.98
2023-02-28T16:30:26.393Z,13.96
2023-02-28T16:32:53.519Z,13.87
2023-02-28T16:35:20.754Z,13.94
2023-02-28T16:37:47.628Z,13.83
2023-02-28T16:40:22.597Z,13.82
2023-02-28T16:42:50.425Z,13.86
2023-02-28T16:45:20.319Z,13.96
2023-02-28T16:47:47.352Z,14.04
2023-02-28T16:50:24.256Z,13.87
2023-02-28T16:52:53.394Z,13.51
2023-02-28T16:55:20.163Z,13.58
2023-02-28T16:57:50.408Z,13.94
2023-02-28T17:00:17.604Z,13.86
2023-02-28T17:02:44.483Z,13.54
2023-02-28T17:05:15.262Z,13.55
2023-02-28T17:07:42.571Z,13.55
2023-02-28T17:10:17.638Z,13.57
2023-02-28T17:12:44.650Z,13.53
2023-02-28T17:15:15.280Z,13.46
2023-02-28T17:17:42.523Z,13.31
2023-02-28T17:20:23.626Z,13.31
2023-02-28T17:22:55.584Z,13.64
2023-02-28T17:25:22.604Z,13.04
2023-02-28T17:27:49.798Z,13.61
2023-02-28T17:30:17.080Z,13.57
2023-02-28T17:32:43.963Z,13.33
2023-02-28T17:35:11.008Z,13.22
2023-02-28T17:37:37.789Z,13.29
2023-02-28T17:40:05.549Z,13.08
2023-02-28T17:42:32.761Z,13.25
2023-02-28T17:44:59.584Z,13.35
2023-02-28T17:47:26.514Z,13.24
2023-02-28T17:49:53.398Z,13.11
2023-02-28T17:52:20.250Z,13.08
2023-02-28T17:54:46.989Z,12.98
2023-02-28T17:57:15.850Z,12.93
2023-02-28T17:59:43.241Z,12.72
2023-02-28T18:02:12.163Z,13.10
2023-02-28T18:04:39.106Z,13.07
2023-02-28T18:07:07.221Z,12.78
2023-02-28T18:09:33.972Z,12.67
2023-02-28T18:12:00.886Z,12.73
2023-02-28T18:14:27.689Z,12.93
2023-02-28T18:16:54.764Z,12.83
2023-02-28T18:19:22.118Z,12.83
2023-02-28T18:21:50.114Z,12.61
2023-02-28T18:24:17.672Z,11.89
2023-02-28T18:26:44.934Z,12.51
2023-02-28T18:29:25.979Z,12.37
2023-02-28T18:31:53.531Z,12.38
2023-02-28T18:34:21.467Z,11.96
2023-02-28T18:36:48.920Z,12.53
2023-02-28T18:39:15.984Z,12.08
2023-02-28T18:41:42.835Z,12.43
2023-02-28T18:44:19.159Z,11.56
2023-02-28T18:46:46.626Z,12.36
2023-02-28T18:49:13.645Z,12.08
2023-02-28T18:51:45.133Z,12.00
2023-02-28T18:54:13.014Z,11.84
2023-02-28T18:56:39.840Z,12.04
2023-02-28T18:59:07.164Z,12.14
2023-02-28T19:01:34.286Z,12.00
2023-02-28T19:04:01.586Z,11.38
2023-02-28T19:06:29.958Z,11.63
2023-02-28T19:08:58.013Z,12.04
2023-02-28T19:11:24.922Z,11.81
2023-02-28T19:13:51.761Z,12.08
2023-02-28T19:16:19.390Z,12.04
2023-02-28T19:18:46.198Z,12.02
2023-02-28T19:21:14.084Z,11.89
2023-02-28T19:23:41.175Z,12.00
2023-02-28T19:26:11.986Z,11.78
2023-02-28T19:28:38.999Z,11.82
2023-02-28T19:31:06.075Z,11.35
2023-02-28T19:33:32.846Z,11.83
2023-02-28T19:36:01.285Z,11.91
2023-02-28T19:38:28.305Z,11.98
2023-02-28T19:41:06.015Z,11.59
2023-02-28T19:43:32.856Z,11.96
2023-02-28T19:45:59.696Z,11.75
2023-02-28T19:48:28.176Z,11.76
2023-02-28T19:51:04.897Z,11.91
2023-02-28T19:53:31.978Z,11.69
2023-02-28T19:56:00.538Z,11.51
2023-02-28T19:58:27.639Z,11.61
2023-02-28T20:00:54.473Z,11.49
2023-02-28T20:03:21.429Z,11.71
2023-02-28T20:05:48.380Z,11.69
2023-02-28T20:08:15.416Z,11.57
2023-02-28T20:10:42.220Z,10.93
2023-02-28T20:13:09.121Z,11.28
2023-02-28T20:15:37.744Z,11.23
2023-02-28T20:18:05.089Z,11.62
2023-02-28T20:20:32.008Z,11.39
2023-02-28T20:22:58.916Z,11.37
2023-02-28T20:25:25.801Z,11.31
2023-02-28T20:27:52.749Z,11.33
2023-02-28T20:30:22.978Z,11.23
2023-02-28T20:32:49.921Z,11.09
2023-02-28T20:35:16.807Z,11.13
2023-02-28T20:37:44.940Z,11.31
2023-02-28T20:40:12.697Z,11.32
2023-02-28T20:42:39.633Z,11.24
2023-02-28T20:45:07.022Z,11.09
2023-02-28T20:47:33.873Z,11.23
2023-02-28T20:50:00.615Z,11.15
2023-02-28T20:52:27.515Z,11.18
2023-02-28T20:54:54.279Z,11.07
2023-02-28T20:57:21.125Z,11.11
2023-02-28T20:59:48.137Z,10.63
2023-02-28T21:02:16.902Z,11.06
2023-02-28T21:04:43.772Z,10.85
2023-02-28T21:07:10.668Z,11.01
2023-02-28T21:09:37.449Z,10.84
2023-02-28T21:12:04.336Z,10.85
2023-02-28T21:14:32.429Z,10.95
2023-02-28T21:16:59.231Z,10.59
2023-02-28T21:19:26.044Z,10.68
2023-02-28T21:21:54.471Z,10.54
2023-02-28T21:24:21.400Z,10.65
2023-02-28T21:26:48.460Z,10.42
2023-02-28T21:29:15.584Z,10.48
2023-02-28T21:31:42.441Z,10.79
2023-02-28T21:34:09.818Z,10.64
2023-02-28T21:36:39.783Z,10.48
2023-02-28T21:39:13.142Z,10.70
2023-02-28T21:41:40.162Z,10.41
2023-02-28T21:44:07.032Z,10.55
2023-02-28T21:46:34.123Z,10.53
2023-02-28T21:49:01.434Z,10.64
2023-02-28T21:51:31.346Z,10.27
2023-02-28T21:53:59.244Z,10.58
2023-02-28T21:56:28.419Z,10.29
2023-02-28T21:59:01.602Z,10.32
2023-02-28T22:01:35.630Z,10.44
2023-02-28T22:04:03.482Z,9.72
2023-02-28T22:06:32.578Z,10.41
2023-02-28T22:09:02.261Z,9.26
2023-02-28T22:11:29.168Z,10.16
2023-02-28T22:13:57.261Z,10.26
2023-02-28T22:16:25.008Z,9.90
2023-02-28T22:18:51.894Z,9.97
2023-02-28T22:21:19.131Z,9.93
2023-02-28T22:23:46.127Z,10.25
2023-02-28T22:26:15.599Z,9.64
2023-02-28T22:28:42.564Z,9.36
2023-02-28T22:31:20.192Z,9.72
2023-02-28T22:33:47.237Z,10.16
2023-02-28T22:36:15.137Z,10.14
2023-02-28T22:38:42.985Z,9.49
2023-02-28T22:41:10.181Z,10.12
2023-02-28T22:43:37.075Z,9.73
2023-02-28T22:46:04.932Z,9.24
2023-02-28T22:48:31.795Z,9.75
2023-02-28T22:51:06.453Z,9.28
2023-02-28T22:53:34.349Z,9.93
2023-02-28T22:56:01.260Z,9.30
2023-02-28T22:58:28.265Z,9.96
2023-02-28T23:00:55.088Z,8.33
2023-02-28T23:03:25.475Z,9.66
2023-02-28T23:05:52.869Z,9.71
2023-02-28T23:08:23.429Z,9.90
2023-02-28T23:10:51.168Z,9.56
2023-02-28T23:13:18.935Z,9.45
2023-02-28T23:15:46.043Z,9.38
2023-02-28T23:18:13.131Z,9.58
2023-02-28T23:20:39.977Z,9.66
2023-02-28T23:23:06.804Z,9.52
2023-02-28T23:25:33.905Z,9.39
2023-02-28T23:28:01.298Z,9.42
2023-02-28T23:30:28.107Z,9.28
2023-02-28T23:32:55.426Z,9.68
2023-02-28T23:35:23.019Z,9.57
2023-02-28T23:37:50.015Z,9.55
2023-02-28T23:40:17.407Z,8.84
2023-02-28T23:42:45.155Z,9.69
2023-02-28T23:45:14.316Z,9.55
2023-02-28T23:47:41.696Z,9.27
2023-02-28T23:50:09.406Z,9.53
2023-02-28T23:52:36.236Z,9.45
2023-02-28T23:55:03.133Z,9.61
2023-02-28T23:57:30.070Z,9.61
2023-02-28T23:59:57.009Z,9.55
